Airfield :
LOGIN :

Register | Disclaimer

   EN    FR    IT 

 










Legend :    VFR   Marginal VFR   IFR   Intensive IFR   Very Intensive IFR
Visi :
Ceiling :
>= 8 km
>= 3000ft
5 to 8 km
1000 to 3000 ft
1500m to 5 km
500 to 1000 ft
800 to 1500m
200 to 500 ft
< 800m
< 200 ft
Symbols :   Thunderstorms  Fog  Heavy snow  Heavy precipitations  Wind > 20 kt
SIGMETs :     Misc.  Thunderstorms  Icing  Turbulence  Mountain Waves  Volcanic Ashes







- Airport Elevation : 44 ft
- IATA code : SOU
- Download approach charts


EGHI - Southampton

CURRENT METAR :
  • 131250Z 24008KT 210V270 9999 VCSH FEW012 SCT017 BKN025 09/07 Q0995

EXPIRED METARs :
  • 131220Z 22008KT 9000 -DZ FEW012 SCT017 BKN031 08/07 Q0996
  • 131150Z 22008KT 8000 -RA FEW032 SCT040 08/07 Q0997
  • 131120Z 22006KT 9000 VCSH FEW035 SCT040 08/07 Q0998
  • 131050Z 23009KT 190V250 9000 VCSH FEW035 SCT040 08/06 Q0999
  • 131020Z 23007KT 9000 -RA FEW035 SCT040 07/06 Q1000

TAF TAF EGHI
Valid from the 13 at 12:00 until the 13 at 21:00 UTC


131102Z 1312/1321 25008KT 9999 SCT040
TEMPO 1312/1316 6000 SHRA BKN010
PROB30
TEMPO 1312/1315 26020G32KT 4000 +SHRA BKN009
PROB30
TEMPO 1318/1321 26020G32KT 2000 +SHRAGS BKN004 BKN020CB
ATIS : +44 23 8062 7103
No reported NOTAMs for that airfield.



MET'MAP, your aeronautical weather chart ! - Copyright ORBIFLY December 2007 - Disclaimer

ORBIFLY MET'MAP TEAM :

Programming & Development : Alexandra Zaïnal
Concept & Development : Baudouin d'Aumeries
Co-Development & Prog : Marc-Olivier Méhu
Technical & hardware support : Manuel Goepfert

Contact : metmap@orbifly.com




SOURCES & CREDITS :

   NOAA